sensor_id;sensor_type;location;lat;lon;timestamp;temperature;humidity
6662;DHT22;3367;48.714;8.994;2022-10-30T00:01:35;12.70;99.90
6662;DHT22;3367;48.714;8.994;2022-10-30T00:04:02;12.60;1.00
6662;DHT22;3367;48.714;8.994;2022-10-30T00:06:29;12.60;1.00
6662;DHT22;3367;48.714;8.994;2022-10-30T00:08:56;12.60;1.00
6662;DHT22;3367;48.714;8.994;2022-10-30T00:11:24;12.60;1.00
6662;DHT22;3367;48.714;8.994;2022-10-30T00:13:51;12.60;1.00
6662;DHT22;3367;48.714;8.994;2022-10-30T00:16:25;12.60;1.00
6662;DHT22;3367;48.714;8.994;2022-10-30T00:18:52;12.60;1.00
6662;DHT22;3367;48.714;8.994;2022-10-30T00:21:19;12.50;1.00
6662;DHT22;3367;48.714;8.994;2022-10-30T00:23:47;12.50;1.00
6662;DHT22;3367;48.714;8.994;2022-10-30T00:26:15;12.60;1.00
6662;DHT22;3367;48.714;8.994;2022-10-30T00:28:43;12.50;1.00
6662;DHT22;3367;48.714;8.994;2022-10-30T00:31:10;12.50;1.00
6662;DHT22;3367;48.714;8.994;2022-10-30T00:33:37;12.50;1.00
6662;DHT22;3367;48.714;8.994;2022-10-30T00:36:04;12.40;1.00
6662;DHT22;3367;48.714;8.994;2022-10-30T00:38:31;12.50;1.00
6662;DHT22;3367;48.714;8.994;2022-10-30T00:40:58;12.40;1.00
6662;DHT22;3367;48.714;8.994;2022-10-30T00:43:31;12.50;1.00
6662;DHT22;3367;48.714;8.994;2022-10-30T00:46:02;12.40;1.00
6662;DHT22;3367;48.714;8.994;2022-10-30T00:48:30;12.50;1.00
6662;DHT22;3367;48.714;8.994;2022-10-30T00:50:58;12.40;1.00
6662;DHT22;3367;48.714;8.994;2022-10-30T00:53:26;12.40;1.00
6662;DHT22;3367;48.714;8.994;2022-10-30T00:55:57;12.40;1.00
6662;DHT22;3367;48.714;8.994;2022-10-30T00:58:30;12.30;1.00
6662;DHT22;3367;48.714;8.994;2022-10-30T01:01:01;12.40;1.00
6662;DHT22;3367;48.714;8.994;2022-10-30T01:03:29;12.30;1.00
6662;DHT22;3367;48.714;8.994;2022-10-30T01:06:00;12.30;1.00
6662;DHT22;3367;48.714;8.994;2022-10-30T01:08:28;12.30;1.00
6662;DHT22;3367;48.714;8.994;2022-10-30T01:10:56;12.30;1.00
6662;DHT22;3367;48.714;8.994;2022-10-30T01:13:24;12.20;1.00
6662;DHT22;3367;48.714;8.994;2022-10-30T01:16:03;12.20;1.00
6662;DHT22;3367;48.714;8.994;2022-10-30T01:18:36;12.20;1.00
6662;DHT22;3367;48.714;8.994;2022-10-30T01:21:16;12.20;1.00
6662;DHT22;3367;48.714;8.994;2022-10-30T01:23:54;12.30;1.00
6662;DHT22;3367;48.714;8.994;2022-10-30T01:26:34;12.20;1.00
6662;DHT22;3367;48.714;8.994;2022-10-30T01:29:19;12.30;1.00
6662;DHT22;3367;48.714;8.994;2022-10-30T01:32:01;12.30;1.00
6662;DHT22;3367;48.714;8.994;2022-10-30T01:34:40;12.30;1.00
6662;DHT22;3367;48.714;8.994;2022-10-30T01:37:14;12.30;99.90
6662;DHT22;3367;48.714;8.994;2022-10-30T01:39:41;12.30;99.90
6662;DHT22;3367;48.714;8.994;2022-10-30T01:42:09;12.30;99.90
6662;DHT22;3367;48.714;8.994;2022-10-30T01:44:36;12.30;1.00
6662;DHT22;3367;48.714;8.994;2022-10-30T01:47:15;12.30;99.90
6662;DHT22;3367;48.714;8.994;2022-10-30T01:50:02;12.30;99.90
6662;DHT22;3367;48.714;8.994;2022-10-30T01:52:35;12.30;99.90
6662;DHT22;3367;48.714;8.994;2022-10-30T01:55:14;12.30;99.90
6662;DHT22;3367;48.714;8.994;2022-10-30T01:57:48;12.30;99.90
6662;DHT22;3367;48.714;8.994;2022-10-30T02:00:17;12.40;99.90
6662;DHT22;3367;48.714;8.994;2022-10-30T02:02:47;12.40;1.00
6662;DHT22;3367;48.714;8.994;2022-10-30T02:05:20;12.50;1.00
6662;DHT22;3367;48.714;8.994;2022-10-30T02:07:50;12.50;1.00
6662;DHT22;3367;48.714;8.994;2022-10-30T02:10:17;12.50;1.00
6662;DHT22;3367;48.714;8.994;2022-10-30T02:12:44;12.50;1.00
6662;DHT22;3367;48.714;8.994;2022-10-30T02:15:11;12.50;1.00
6662;DHT22;3367;48.714;8.994;2022-10-30T02:17:38;12.50;1.00
6662;DHT22;3367;48.714;8.994;2022-10-30T02:20:13;12.50;1.00
6662;DHT22;3367;48.714;8.994;2022-10-30T02:22:40;12.50;1.00
6662;DHT22;3367;48.714;8.994;2022-10-30T02:25:07;12.40;1.00
6662;DHT22;3367;48.714;8.994;2022-10-30T02:27:34;12.40;1.00
6662;DHT22;3367;48.714;8.994;2022-10-30T02:30:01;12.40;1.00
6662;DHT22;3367;48.714;8.994;2022-10-30T02:32:27;12.30;1.00
6662;DHT22;3367;48.714;8.994;2022-10-30T02:34:54;12.30;1.00
6662;DHT22;3367;48.714;8.994;2022-10-30T02:37:22;12.30;1.00
6662;DHT22;3367;48.714;8.994;2022-10-30T02:39:49;12.20;1.00
6662;DHT22;3367;48.714;8.994;2022-10-30T02:42:16;12.20;1.00
6662;DHT22;3367;48.714;8.994;2022-10-30T02:44:44;12.20;1.00
6662;DHT22;3367;48.714;8.994;2022-10-30T02:47:11;12.20;99.90
6662;DHT22;3367;48.714;8.994;2022-10-30T02:49:38;12.20;99.90
6662;DHT22;3367;48.714;8.994;2022-10-30T02:52:05;12.20;99.90
6662;DHT22;3367;48.714;8.994;2022-10-30T02:54:33;12.20;99.90
6662;DHT22;3367;48.714;8.994;2022-10-30T02:57:00;12.10;99.90
6662;DHT22;3367;48.714;8.994;2022-10-30T02:59:28;12.10;99.90
6662;DHT22;3367;48.714;8.994;2022-10-30T03:01:55;12.10;99.90
6662;DHT22;3367;48.714;8.994;2022-10-30T03:04:21;12.10;99.90
6662;DHT22;3367;48.714;8.994;2022-10-30T03:06:48;12.00;99.90
6662;DHT22;3367;48.714;8.994;2022-10-30T03:09:15;12.00;1.00
6662;DHT22;3367;48.714;8.994;2022-10-30T03:11:43;12.00;1.00
6662;DHT22;3367;48.714;8.994;2022-10-30T03:14:10;12.10;99.90
6662;DHT22;3367;48.714;8.994;2022-10-30T03:16:37;12.10;39.80
6662;DHT22;3367;48.714;8.994;2022-10-30T03:19:04;12.10;1.00
6662;DHT22;3367;48.714;8.994;2022-10-30T03:21:30;12.10;99.90
6662;DHT22;3367;48.714;8.994;2022-10-30T03:23:57;12.10;96.60
6662;DHT22;3367;48.714;8.994;2022-10-30T03:26:24;12.20;1.00
6662;DHT22;3367;48.714;8.994;2022-10-30T03:28:52;12.20;1.00
6662;DHT22;3367;48.714;8.994;2022-10-30T03:31:19;12.10;1.00
6662;DHT22;3367;48.714;8.994;2022-10-30T03:33:46;12.00;1.00
6662;DHT22;3367;48.714;8.994;2022-10-30T03:36:13;12.00;1.00
6662;DHT22;3367;48.714;8.994;2022-10-30T03:38:41;12.00;1.00
6662;DHT22;3367;48.714;8.994;2022-10-30T03:41:08;11.90;98.90
6662;DHT22;3367;48.714;8.994;2022-10-30T03:43:35;11.80;99.90
6662;DHT22;3367;48.714;8.994;2022-10-30T03:46:03;11.80;99.90
6662;DHT22;3367;48.714;8.994;2022-10-30T03:48:30;11.70;99.90
6662;DHT22;3367;48.714;8.994;2022-10-30T03:50:58;11.70;1.00
6662;DHT22;3367;48.714;8.994;2022-10-30T03:53:26;11.80;99.90
6662;DHT22;3367;48.714;8.994;2022-10-30T03:55:57;11.80;1.00
6662;DHT22;3367;48.714;8.994;2022-10-30T03:58:24;11.80;99.90
6662;DHT22;3367;48.714;8.994;2022-10-30T04:00:51;11.70;99.90
6662;DHT22;3367;48.714;8.994;2022-10-30T04:03:19;11.70;1.00
6662;DHT22;3367;48.714;8.994;2022-10-30T04:05:46;11.70;1.00
6662;DHT22;3367;48.714;8.994;2022-10-30T04:08:16;11.70;99.90
6662;DHT22;3367;48.714;8.994;2022-10-30T04:10:43;11.70;99.90
6662;DHT22;3367;48.714;8.994;2022-10-30T04:13:11;11.60;1.00
6662;DHT22;3367;48.714;8.994;2022-10-30T04:15:38;11.60;1.00
6662;DHT22;3367;48.714;8.994;2022-10-30T04:18:06;11.60;1.00
6662;DHT22;3367;48.714;8.994;2022-10-30T04:20:34;11.60;1.00
6662;DHT22;3367;48.714;8.994;2022-10-30T04:23:03;11.50;1.00
6662;DHT22;3367;48.714;8.994;2022-10-30T04:25:30;11.50;1.00
6662;DHT22;3367;48.714;8.994;2022-10-30T04:27:58;11.50;1.00
6662;DHT22;3367;48.714;8.994;2022-10-30T04:30:25;11.50;1.00
6662;DHT22;3367;48.714;8.994;2022-10-30T04:32:53;11.50;1.00
6662;DHT22;3367;48.714;8.994;2022-10-30T04:35:23;11.30;28.00
6662;DHT22;3367;48.714;8.994;2022-10-30T04:37:55;11.40;1.00
6662;DHT22;3367;48.714;8.994;2022-10-30T04:40:24;11.40;99.90
6662;DHT22;3367;48.714;8.994;2022-10-30T04:42:51;11.30;70.00
6662;DHT22;3367;48.714;8.994;2022-10-30T04:45:18;11.30;16.00
6662;DHT22;3367;48.714;8.994;2022-10-30T04:47:45;11.20;99.90
6662;DHT22;3367;48.714;8.994;2022-10-30T04:50:12;11.10;91.10
6662;DHT22;3367;48.714;8.994;2022-10-30T04:52:40;11.10;99.90
6662;DHT22;3367;48.714;8.994;2022-10-30T04:55:10;11.10;1.00
6662;DHT22;3367;48.714;8.994;2022-10-30T04:57:37;11.00;1.00
6662;DHT22;3367;48.714;8.994;2022-10-30T05:00:04;11.10;1.00
6662;DHT22;3367;48.714;8.994;2022-10-30T05:02:33;11.20;1.00
6662;DHT22;3367;48.714;8.994;2022-10-30T05:05:00;11.10;1.00
6662;DHT22;3367;48.714;8.994;2022-10-30T05:07:26;11.00;99.90
6662;DHT22;3367;48.714;8.994;2022-10-30T05:09:53;11.00;1.00
6662;DHT22;3367;48.714;8.994;2022-10-30T05:12:21;10.80;1.00
6662;DHT22;3367;48.714;8.994;2022-10-30T05:14:48;10.80;1.00
6662;DHT22;3367;48.714;8.994;2022-10-30T05:17:15;10.80;1.00
6662;DHT22;3367;48.714;8.994;2022-10-30T05:19:41;10.80;1.00
6662;DHT22;3367;48.714;8.994;2022-10-30T05:22:08;10.80;4.30
6662;DHT22;3367;48.714;8.994;2022-10-30T05:24:35;10.80;10.20
6662;DHT22;3367;48.714;8.994;2022-10-30T05:27:01;10.90;1.00
6662;DHT22;3367;48.714;8.994;2022-10-30T05:29:30;10.80;1.00
6662;DHT22;3367;48.714;8.994;2022-10-30T05:31:56;10.70;1.00
6662;DHT22;3367;48.714;8.994;2022-10-30T05:34:23;10.70;1.00
6662;DHT22;3367;48.714;8.994;2022-10-30T05:36:50;10.60;1.00
6662;DHT22;3367;48.714;8.994;2022-10-30T05:39:16;10.50;1.00
6662;DHT22;3367;48.714;8.994;2022-10-30T05:41:43;10.50;99.90
6662;DHT22;3367;48.714;8.994;2022-10-30T05:44:10;10.50;99.90
6662;DHT22;3367;48.714;8.994;2022-10-30T05:46:38;10.50;99.90
6662;DHT22;3367;48.714;8.994;2022-10-30T05:49:05;10.40;99.90
6662;DHT22;3367;48.714;8.994;2022-10-30T05:51:32;10.30;99.90
6662;DHT22;3367;48.714;8.994;2022-10-30T05:53:58;10.40;1.00
6662;DHT22;3367;48.714;8.994;2022-10-30T05:56:25;10.30;1.00
6662;DHT22;3367;48.714;8.994;2022-10-30T05:58:52;10.30;1.00
6662;DHT22;3367;48.714;8.994;2022-10-30T06:01:19;10.20;1.00
6662;DHT22;3367;48.714;8.994;2022-10-30T06:03:47;10.20;1.00
6662;DHT22;3367;48.714;8.994;2022-10-30T06:06:13;10.20;1.00
6662;DHT22;3367;48.714;8.994;2022-10-30T06:08:40;10.20;1.00
6662;DHT22;3367;48.714;8.994;2022-10-30T06:11:07;10.30;1.00
6662;DHT22;3367;48.714;8.994;2022-10-30T06:13:33;10.20;1.00
6662;DHT22;3367;48.714;8.994;2022-10-30T06:16:00;10.30;1.00
6662;DHT22;3367;48.714;8.994;2022-10-30T06:18:27;10.30;1.00
6662;DHT22;3367;48.714;8.994;2022-10-30T06:20:55;10.30;1.00
6662;DHT22;3367;48.714;8.994;2022-10-30T06:23:22;10.30;1.00
6662;DHT22;3367;48.714;8.994;2022-10-30T06:25:48;10.30;1.00
6662;DHT22;3367;48.714;8.994;2022-10-30T06:28:15;10.30;1.00
6662;DHT22;3367;48.714;8.994;2022-10-30T06:30:42;10.30;1.00
6662;DHT22;3367;48.714;8.994;2022-10-30T06:33:09;10.30;1.00
6662;DHT22;3367;48.714;8.994;2022-10-30T06:35:36;10.40;1.00
6662;DHT22;3367;48.714;8.994;2022-10-30T06:38:04;10.40;1.00
6662;DHT22;3367;48.714;8.994;2022-10-30T06:40:31;10.40;1.00
6662;DHT22;3367;48.714;8.994;2022-10-30T06:42:57;10.50;99.90
6662;DHT22;3367;48.714;8.994;2022-10-30T06:45:24;10.50;99.90
6662;DHT22;3367;48.714;8.994;2022-10-30T06:47:51;10.50;99.90
6662;DHT22;3367;48.714;8.994;2022-10-30T06:50:19;10.60;99.90
6662;DHT22;3367;48.714;8.994;2022-10-30T06:52:46;10.70;1.00
6662;DHT22;3367;48.714;8.994;2022-10-30T06:55:15;10.80;1.00
6662;DHT22;3367;48.714;8.994;2022-10-30T06:57:42;10.80;1.00
6662;DHT22;3367;48.714;8.994;2022-10-30T07:00:10;10.90;1.00
6662;DHT22;3367;48.714;8.994;2022-10-30T07:02:37;11.00;99.90
6662;DHT22;3367;48.714;8.994;2022-10-30T07:05:04;11.00;28.10
6662;DHT22;3367;48.714;8.994;2022-10-30T07:07:31;11.10;1.00
6662;DHT22;3367;48.714;8.994;2022-10-30T07:09:58;11.20;1.00
6662;DHT22;3367;48.714;8.994;2022-10-30T07:12:26;11.20;1.00
6662;DHT22;3367;48.714;8.994;2022-10-30T07:14:53;11.20;1.00
6662;DHT22;3367;48.714;8.994;2022-10-30T07:17:19;11.30;99.90
6662;DHT22;3367;48.714;8.994;2022-10-30T07:19:46;11.40;99.90
6662;DHT22;3367;48.714;8.994;2022-10-30T07:22:13;11.40;99.90
6662;DHT22;3367;48.714;8.994;2022-10-30T07:24:39;11.40;99.90
6662;DHT22;3367;48.714;8.994;2022-10-30T07:27:06;11.50;58.70
6662;DHT22;3367;48.714;8.994;2022-10-30T07:29:34;11.60;1.00
6662;DHT22;3367;48.714;8.994;2022-10-30T07:32:01;11.60;1.00
6662;DHT22;3367;48.714;8.994;2022-10-30T07:34:28;11.70;1.00
6662;DHT22;3367;48.714;8.994;2022-10-30T07:36:54;11.80;1.00
6662;DHT22;3367;48.714;8.994;2022-10-30T07:39:21;11.90;99.90
6662;DHT22;3367;48.714;8.994;2022-10-30T07:41:48;12.10;42.60
6662;DHT22;3367;48.714;8.994;2022-10-30T07:44:15;12.30;1.00
6662;DHT22;3367;48.714;8.994;2022-10-30T07:46:43;12.50;1.00
6662;DHT22;3367;48.714;8.994;2022-10-30T07:49:10;12.60;99.90
6662;DHT22;3367;48.714;8.994;2022-10-30T07:51:36;12.80;1.00
6662;DHT22;3367;48.714;8.994;2022-10-30T07:54:03;13.00;1.00
6662;DHT22;3367;48.714;8.994;2022-10-30T07:56:30;13.20;1.00
6662;DHT22;3367;48.714;8.994;2022-10-30T07:58:57;13.40;99.90
6662;DHT22;3367;48.714;8.994;2022-10-30T08:01:24;13.60;99.90
6662;DHT22;3367;48.714;8.994;2022-10-30T08:03:52;13.70;99.90
6662;DHT22;3367;48.714;8.994;2022-10-30T08:06:18;13.80;1.00
6662;DHT22;3367;48.714;8.994;2022-10-30T08:08:45;13.90;1.00
6662;DHT22;3367;48.714;8.994;2022-10-30T08:11:12;14.00;1.00
6662;DHT22;3367;48.714;8.994;2022-10-30T08:13:38;14.10;1.00
6662;DHT22;3367;48.714;8.994;2022-10-30T08:16:05;14.30;1.00
6662;DHT22;3367;48.714;8.994;2022-10-30T08:18:32;14.40;1.00
6662;DHT22;3367;48.714;8.994;2022-10-30T08:21:01;14.50;1.00
6662;DHT22;3367;48.714;8.994;2022-10-30T08:23:27;14.60;1.00
6662;DHT22;3367;48.714;8.994;2022-10-30T08:25:56;14.70;1.00
6662;DHT22;3367;48.714;8.994;2022-10-30T08:28:24;14.80;1.00
6662;DHT22;3367;48.714;8.994;2022-10-30T08:30:51;14.90;1.00
6662;DHT22;3367;48.714;8.994;2022-10-30T08:33:18;15.10;1.00
6662;DHT22;3367;48.714;8.994;2022-10-30T08:35:48;15.20;1.00
6662;DHT22;3367;48.714;8.994;2022-10-30T08:38:17;15.40;99.90
6662;DHT22;3367;48.714;8.994;2022-10-30T08:40:44;15.50;99.90
6662;DHT22;3367;48.714;8.994;2022-10-30T08:43:11;15.60;99.90
6662;DHT22;3367;48.714;8.994;2022-10-30T08:45:38;15.70;99.90
6662;DHT22;3367;48.714;8.994;2022-10-30T08:48:06;15.80;99.90
6662;DHT22;3367;48.714;8.994;2022-10-30T08:50:35;16.00;99.90
6662;DHT22;3367;48.714;8.994;2022-10-30T08:53:03;16.10;99.90
6662;DHT22;3367;48.714;8.994;2022-10-30T08:55:32;16.20;99.90
6662;DHT22;3367;48.714;8.994;2022-10-30T08:57:59;16.40;99.90
6662;DHT22;3367;48.714;8.994;2022-10-30T09:00:27;16.40;99.90
6662;DHT22;3367;48.714;8.994;2022-10-30T09:02:54;16.60;1.00
6662;DHT22;3367;48.714;8.994;2022-10-30T09:05:21;16.70;1.00
6662;DHT22;3367;48.714;8.994;2022-10-30T09:07:48;16.80;1.00
6662;DHT22;3367;48.714;8.994;2022-10-30T09:10:15;16.80;1.00
6662;DHT22;3367;48.714;8.994;2022-10-30T09:12:43;16.90;1.00
6662;DHT22;3367;48.714;8.994;2022-10-30T09:15:09;17.00;1.00
6662;DHT22;3367;48.714;8.994;2022-10-30T09:17:36;17.10;1.00
6662;DHT22;3367;48.714;8.994;2022-10-30T09:20:04;17.20;1.00
6662;DHT22;3367;48.714;8.994;2022-10-30T09:22:31;17.30;1.00
6662;DHT22;3367;48.714;8.994;2022-10-30T09:24:57;17.40;1.00
6662;DHT22;3367;48.714;8.994;2022-10-30T09:27:24;17.50;1.00
6662;DHT22;3367;48.714;8.994;2022-10-30T09:29:53;17.60;1.00
6662;DHT22;3367;48.714;8.994;2022-10-30T09:32:20;17.80;1.00
6662;DHT22;3367;48.714;8.994;2022-10-30T09:34:46;17.90;1.00
6662;DHT22;3367;48.714;8.994;2022-10-30T09:37:13;18.00;1.00
6662;DHT22;3367;48.714;8.994;2022-10-30T09:39:40;18.10;1.00
6662;DHT22;3367;48.714;8.994;2022-10-30T09:45:47;18.30;1.00
6662;DHT22;3367;48.714;8.994;2022-10-30T09:48:39;18.50;1.00
6662;DHT22;3367;48.714;8.994;2022-10-30T09:51:24;18.70;1.00
6662;DHT22;3367;48.714;8.994;2022-10-30T09:54:04;18.80;1.00
6662;DHT22;3367;48.714;8.994;2022-10-30T09:56:38;19.00;1.00
6662;DHT22;3367;48.714;8.994;2022-10-30T09:59:17;19.10;1.00
6662;DHT22;3367;48.714;8.994;2022-10-30T10:01:50;19.20;1.00
6662;DHT22;3367;48.714;8.994;2022-10-30T10:04:24;19.30;1.00
6662;DHT22;3367;48.714;8.994;2022-10-30T10:06:55;19.40;1.00
6662;DHT22;3367;48.714;8.994;2022-10-30T10:09:25;19.60;1.00
6662;DHT22;3367;48.714;8.994;2022-10-30T10:11:54;19.60;1.00
6662;DHT22;3367;48.714;8.994;2022-10-30T10:14:24;19.80;1.00
6662;DHT22;3367;48.714;8.994;2022-10-30T10:16:55;19.80;1.00
6662;DHT22;3367;48.714;8.994;2022-10-30T10:19:29;20.00;1.00
6662;DHT22;3367;48.714;8.994;2022-10-30T10:21:59;20.00;1.00
6662;DHT22;3367;48.714;8.994;2022-10-30T10:24:29;20.10;1.00
6662;DHT22;3367;48.714;8.994;2022-10-30T10:26:59;20.10;1.00
6662;DHT22;3367;48.714;8.994;2022-10-30T10:29:32;20.20;1.00
6662;DHT22;3367;48.714;8.994;2022-10-30T10:32:37;20.40;1.00
6662;DHT22;3367;48.714;8.994;2022-10-30T10:35:32;20.50;1.00
6662;DHT22;3367;48.714;8.994;2022-10-30T10:38:04;20.70;1.00
6662;DHT22;3367;48.714;8.994;2022-10-30T10:40:41;20.80;1.00
6662;DHT22;3367;48.714;8.994;2022-10-30T10:43:19;21.00;1.00
6662;DHT22;3367;48.714;8.994;2022-10-30T10:45:55;21.10;1.00
6662;DHT22;3367;48.714;8.994;2022-10-30T10:48:49;21.20;1.00
6662;DHT22;3367;48.714;8.994;2022-10-30T10:51:21;21.30;1.00
6662;DHT22;3367;48.714;8.994;2022-10-30T10:53:53;21.40;1.00
6662;DHT22;3367;48.714;8.994;2022-10-30T10:56:25;21.50;1.00
6662;DHT22;3367;48.714;8.994;2022-10-30T10:58:55;21.70;1.00
6662;DHT22;3367;48.714;8.994;2022-10-30T11:01:28;21.70;1.00
6662;DHT22;3367;48.714;8.994;2022-10-30T11:04:02;21.80;1.00
6662;DHT22;3367;48.714;8.994;2022-10-30T11:06:32;21.90;1.00
6662;DHT22;3367;48.714;8.994;2022-10-30T11:09:13;22.00;1.00
6662;DHT22;3367;48.714;8.994;2022-10-30T11:11:41;22.10;1.00
6662;DHT22;3367;48.714;8.994;2022-10-30T11:14:13;22.20;1.00
6662;DHT22;3367;48.714;8.994;2022-10-30T11:16:55;22.20;1.00
6662;DHT22;3367;48.714;8.994;2022-10-30T11:19:27;22.30;1.00
6662;DHT22;3367;48.714;8.994;2022-10-30T11:21:55;22.30;1.00
6662;DHT22;3367;48.714;8.994;2022-10-30T11:24:28;22.40;1.00
6662;DHT22;3367;48.714;8.994;2022-10-30T11:26:58;22.40;1.00
6662;DHT22;3367;48.714;8.994;2022-10-30T11:29:26;22.50;1.00
6662;DHT22;3367;48.714;8.994;2022-10-30T11:31:59;22.60;1.00
6662;DHT22;3367;48.714;8.994;2022-10-30T11:34:31;22.50;1.00
6662;DHT22;3367;48.714;8.994;2022-10-30T11:36:58;22.50;1.00
6662;DHT22;3367;48.714;8.994;2022-10-30T11:39:26;22.50;1.00
6662;DHT22;3367;48.714;8.994;2022-10-30T11:41:57;22.40;1.00
6662;DHT22;3367;48.714;8.994;2022-10-30T11:44:28;22.30;1.00
6662;DHT22;3367;48.714;8.994;2022-10-30T11:46:56;22.20;1.00
6662;DHT22;3367;48.714;8.994;2022-10-30T11:49:29;22.20;1.00
6662;DHT22;3367;48.714;8.994;2022-10-30T11:51:57;22.10;1.00
6662;DHT22;3367;48.714;8.994;2022-10-30T11:54:25;22.00;1.00
6662;DHT22;3367;48.714;8.994;2022-10-30T11:56:52;22.00;1.00
6662;DHT22;3367;48.714;8.994;2022-10-30T11:59:22;22.00;1.00
6662;DHT22;3367;48.714;8.994;2022-10-30T12:02:00;22.00;1.00
6662;DHT22;3367;48.714;8.994;2022-10-30T12:04:29;22.00;1.00
6662;DHT22;3367;48.714;8.994;2022-10-30T12:07:10;22.00;1.00
6662;DHT22;3367;48.714;8.994;2022-10-30T12:09:43;22.10;1.00
6662;DHT22;3367;48.714;8.994;2022-10-30T12:12:12;22.20;1.00
6662;DHT22;3367;48.714;8.994;2022-10-30T12:14:44;22.30;1.00
6662;DHT22;3367;48.714;8.994;2022-10-30T12:17:13;22.50;1.00
6662;DHT22;3367;48.714;8.994;2022-10-30T12:19:47;22.50;1.00
6662;DHT22;3367;48.714;8.994;2022-10-30T12:22:27;22.70;1.00
6662;DHT22;3367;48.714;8.994;2022-10-30T12:24:55;22.80;1.00
6662;DHT22;3367;48.714;8.994;2022-10-30T12:27:23;23.00;1.00
6662;DHT22;3367;48.714;8.994;2022-10-30T12:30:05;23.00;1.00
6662;DHT22;3367;48.714;8.994;2022-10-30T12:32:45;23.10;1.00
6662;DHT22;3367;48.714;8.994;2022-10-30T12:35:23;23.10;1.00
6662;DHT22;3367;48.714;8.994;2022-10-30T12:37:53;23.10;1.00
6662;DHT22;3367;48.714;8.994;2022-10-30T12:40:25;23.10;1.00
6662;DHT22;3367;48.714;8.994;2022-10-30T12:42:58;23.10;1.00
6662;DHT22;3367;48.714;8.994;2022-10-30T12:45:29;23.20;1.00
6662;DHT22;3367;48.714;8.994;2022-10-30T12:48:00;23.20;1.00
6662;DHT22;3367;48.714;8.994;2022-10-30T12:50:35;23.20;1.00
6662;DHT22;3367;48.714;8.994;2022-10-30T12:53:07;23.20;1.00
6662;DHT22;3367;48.714;8.994;2022-10-30T12:55:37;23.20;1.00
6662;DHT22;3367;48.714;8.994;2022-10-30T12:58:13;23.20;1.00
6662;DHT22;3367;48.714;8.994;2022-10-30T13:00:50;23.10;1.00
6662;DHT22;3367;48.714;8.994;2022-10-30T13:03:26;23.10;1.00
6662;DHT22;3367;48.714;8.994;2022-10-30T13:05:59;23.20;1.00
6662;DHT22;3367;48.714;8.994;2022-10-30T13:08:31;23.20;1.00
6662;DHT22;3367;48.714;8.994;2022-10-30T13:11:04;23.10;1.00
6662;DHT22;3367;48.714;8.994;2022-10-30T13:13:36;23.10;1.00
6662;DHT22;3367;48.714;8.994;2022-10-30T13:16:09;23.00;1.00
6662;DHT22;3367;48.714;8.994;2022-10-30T13:18:38;23.00;1.00
6662;DHT22;3367;48.714;8.994;2022-10-30T13:21:15;23.00;1.00
6662;DHT22;3367;48.714;8.994;2022-10-30T13:23:50;23.00;1.00
6662;DHT22;3367;48.714;8.994;2022-10-30T13:26:32;23.00;1.00
6662;DHT22;3367;48.714;8.994;2022-10-30T13:29:14;23.00;1.00
6662;DHT22;3367;48.714;8.994;2022-10-30T13:31:54;23.00;1.00
6662;DHT22;3367;48.714;8.994;2022-10-30T13:34:32;23.10;1.00
6662;DHT22;3367;48.714;8.994;2022-10-30T13:37:05;23.10;1.00
6662;DHT22;3367;48.714;8.994;2022-10-30T13:39:38;23.10;1.00
6662;DHT22;3367;48.714;8.994;2022-10-30T13:42:19;23.20;1.00
6662;DHT22;3367;48.714;8.994;2022-10-30T13:44:55;23.20;1.00
6662;DHT22;3367;48.714;8.994;2022-10-30T13:47:31;23.20;1.00
6662;DHT22;3367;48.714;8.994;2022-10-30T13:50:15;23.30;1.00
6662;DHT22;3367;48.714;8.994;2022-10-30T13:52:48;23.20;1.00
6662;DHT22;3367;48.714;8.994;2022-10-30T13:55:21;23.20;1.00
6662;DHT22;3367;48.714;8.994;2022-10-30T13:57:56;23.10;1.00
6662;DHT22;3367;48.714;8.994;2022-10-30T14:00:34;23.10;1.00
6662;DHT22;3367;48.714;8.994;2022-10-30T14:03:28;23.00;1.00
6662;DHT22;3367;48.714;8.994;2022-10-30T14:06:04;22.90;1.00
6662;DHT22;3367;48.714;8.994;2022-10-30T14:08:40;22.80;1.00
6662;DHT22;3367;48.714;8.994;2022-10-30T14:11:11;22.60;1.00
6662;DHT22;3367;48.714;8.994;2022-10-30T14:13:48;22.50;1.00
6662;DHT22;3367;48.714;8.994;2022-10-30T14:16:36;22.30;1.00
6662;DHT22;3367;48.714;8.994;2022-10-30T14:19:05;22.20;1.00
6662;DHT22;3367;48.714;8.994;2022-10-30T14:21:40;22.00;1.00
6662;DHT22;3367;48.714;8.994;2022-10-30T14:24:18;21.80;1.00
6662;DHT22;3367;48.714;8.994;2022-10-30T14:26:47;21.60;1.00
6662;DHT22;3367;48.714;8.994;2022-10-30T14:32:46;21.50;1.00
6662;DHT22;3367;48.714;8.994;2022-10-30T14:35:32;21.40;1.00
6662;DHT22;3367;48.714;8.994;2022-10-30T14:38:25;21.40;1.00
6662;DHT22;3367;48.714;8.994;2022-10-30T14:43:58;21.10;1.00
6662;DHT22;3367;48.714;8.994;2022-10-30T14:46:32;20.90;1.00
6662;DHT22;3367;48.714;8.994;2022-10-30T14:49:08;20.80;1.00
6662;DHT22;3367;48.714;8.994;2022-10-30T14:51:40;20.70;1.00
6662;DHT22;3367;48.714;8.994;2022-10-30T14:54:15;20.50;1.00
6662;DHT22;3367;48.714;8.994;2022-10-30T14:56:47;20.40;1.00
6662;DHT22;3367;48.714;8.994;2022-10-30T14:59:32;20.30;1.00
6662;DHT22;3367;48.714;8.994;2022-10-30T15:02:13;20.20;1.00
6662;DHT22;3367;48.714;8.994;2022-10-30T15:04:54;20.20;1.00
6662;DHT22;3367;48.714;8.994;2022-10-30T15:07:28;20.10;1.00
6662;DHT22;3367;48.714;8.994;2022-10-30T15:10:05;19.90;1.00
6662;DHT22;3367;48.714;8.994;2022-10-30T15:13:05;19.90;1.00
6662;DHT22;3367;48.714;8.994;2022-10-30T15:15:32;19.80;1.00
6662;DHT22;3367;48.714;8.994;2022-10-30T15:18:02;19.70;1.00
6662;DHT22;3367;48.714;8.994;2022-10-30T15:20:33;19.60;1.00
6662;DHT22;3367;48.714;8.994;2022-10-30T15:23:03;19.60;1.00
6662;DHT22;3367;48.714;8.994;2022-10-30T15:25:33;19.60;1.00
6662;DHT22;3367;48.714;8.994;2022-10-30T15:28:03;19.60;1.00
6662;DHT22;3367;48.714;8.994;2022-10-30T15:30:30;19.60;1.00
6662;DHT22;3367;48.714;8.994;2022-10-30T15:32:56;19.60;1.00
6662;DHT22;3367;48.714;8.994;2022-10-30T15:35:25;19.60;1.00
6662;DHT22;3367;48.714;8.994;2022-10-30T15:37:59;19.50;1.00
6662;DHT22;3367;48.714;8.994;2022-10-30T15:40:27;19.50;1.00
6662;DHT22;3367;48.714;8.994;2022-10-30T15:42:55;19.30;1.00
6662;DHT22;3367;48.714;8.994;2022-10-30T15:45:28;19.20;1.00
6662;DHT22;3367;48.714;8.994;2022-10-30T15:47:58;19.00;1.00
6662;DHT22;3367;48.714;8.994;2022-10-30T15:50:26;18.90;1.00
6662;DHT22;3367;48.714;8.994;2022-10-30T15:52:53;18.80;1.00
6662;DHT22;3367;48.714;8.994;2022-10-30T15:55:24;18.80;1.00
6662;DHT22;3367;48.714;8.994;2022-10-30T15:57:54;18.70;1.00
6662;DHT22;3367;48.714;8.994;2022-10-30T16:00:25;18.60;1.00
6662;DHT22;3367;48.714;8.994;2022-10-30T16:03:04;18.50;1.00
6662;DHT22;3367;48.714;8.994;2022-10-30T16:05:31;18.30;1.00
6662;DHT22;3367;48.714;8.994;2022-10-30T16:07:59;18.30;1.00
6662;DHT22;3367;48.714;8.994;2022-10-30T16:10:31;18.10;1.00
6662;DHT22;3367;48.714;8.994;2022-10-30T16:12:59;18.00;1.00
6662;DHT22;3367;48.714;8.994;2022-10-30T16:15:29;17.80;1.00
6662;DHT22;3367;48.714;8.994;2022-10-30T16:18:06;17.70;1.00
6662;DHT22;3367;48.714;8.994;2022-10-30T16:20:34;17.60;1.00
6662;DHT22;3367;48.714;8.994;2022-10-30T16:23:03;17.40;1.00
6662;DHT22;3367;48.714;8.994;2022-10-30T16:25:30;17.30;1.00
6662;DHT22;3367;48.714;8.994;2022-10-30T16:28:02;17.10;1.00
6662;DHT22;3367;48.714;8.994;2022-10-30T16:30:30;16.90;1.00
6662;DHT22;3367;48.714;8.994;2022-10-30T16:32:59;16.80;1.00
6662;DHT22;3367;48.714;8.994;2022-10-30T16:35:26;16.80;2.50
6662;DHT22;3367;48.714;8.994;2022-10-30T16:37:53;16.60;41.50
6662;DHT22;3367;48.714;8.994;2022-10-30T16:40:23;16.50;93.90
6662;DHT22;3367;48.714;8.994;2022-10-30T16:42:53;16.40;97.90
6662;DHT22;3367;48.714;8.994;2022-10-30T16:45:45;16.20;99.90